createdAt,value
2022-08-07T00:00:39.991Z,102835.31
2022-08-07T00:03:08.702Z,102836.34
2022-08-07T00:05:37.051Z,102835.66
2022-08-07T00:08:04.941Z,102834.00
2022-08-07T00:10:31.837Z,102828.88
2022-08-07T00:13:03.203Z,102837.78
2022-08-07T00:15:46.829Z,102835.31
2022-08-07T00:18:24.472Z,102830.28
2022-08-07T00:20:57.498Z,102823.44
2022-08-07T00:23:30.201Z,102825.34
2022-08-07T00:26:00.646Z,102822.97
2022-08-07T00:28:34.025Z,102820.41
2022-08-07T00:31:12.356Z,102813.50
2022-08-07T00:33:43.314Z,102811.88
2022-08-07T00:36:13.970Z,102812.84
2022-08-07T00:38:40.510Z,102806.88
2022-08-07T00:41:10.036Z,102809.56
2022-08-07T00:43:59.315Z,102802.72
2022-08-07T00:46:28.100Z,102795.97
2022-08-07T00:48:54.543Z,102802.31
2022-08-07T00:51:21.555Z,102800.66
2022-08-07T00:53:50.721Z,102805.16
2022-08-07T00:56:22.968Z,102800.88
2022-08-07T00:58:49.777Z,102798.38
2022-08-07T01:01:18.464Z,102796.72
2022-08-07T01:03:55.801Z,102800.31
2022-08-07T01:06:28.442Z,102794.28
2022-08-07T01:08:58.381Z,102798.78
2022-08-07T01:12:09.584Z,102796.25
2022-08-07T01:14:15.600Z,102792.06
2022-08-07T01:16:47.184Z,102795.66
2022-08-07T01:19:18.768Z,102790.53
2022-08-07T01:21:48.085Z,102794.19
2022-08-07T01:24:21.260Z,102795.16
2022-08-07T01:26:52.282Z,102793.47
2022-08-07T01:29:22.341Z,102789.19
2022-08-07T01:31:49.620Z,102788.38
2022-08-07T01:34:17.983Z,102796.31
2022-08-07T01:36:52.490Z,102787.72
2022-08-07T01:39:41.323Z,102784.34
2022-08-07T01:42:38.884Z,102787.13
2022-08-07T01:45:03.005Z,102783.78
2022-08-07T01:48:19.024Z,102783.91
2022-08-07T01:50:16.576Z,102789.25
2022-08-07T01:52:54.447Z,102783.28
2022-08-07T01:55:26.940Z,102778.09
2022-08-07T01:58:05.442Z,102775.53
2022-08-07T02:00:50.106Z,102775.63
2022-08-07T02:03:24.925Z,102776.63
2022-08-07T02:05:59.828Z,102778.50
2022-08-07T02:08:30.518Z,102777.63
2022-08-07T02:10:59.996Z,102780.41
2022-08-07T02:13:56.470Z,102778.75
2022-08-07T02:16:19.867Z,102774.47
2022-08-07T02:18:47.851Z,102776.22
2022-08-07T02:21:16.626Z,102785.00
2022-08-07T02:23:44.840Z,102773.72
2022-08-07T02:26:33.994Z,102772.91
2022-08-07T02:29:02.258Z,102774.78
2022-08-07T02:31:32.729Z,102771.38
2022-08-07T02:34:10.908Z,102771.44
2022-08-07T02:36:39.333Z,102768.06
2022-08-07T02:39:16.153Z,102762.94
2022-08-07T02:41:54.190Z,102766.47
2022-08-07T02:44:21.391Z,102764.81
2022-08-07T02:46:52.697Z,102765.84
2022-08-07T02:49:29.158Z,102771.19
2022-08-07T02:52:10.027Z,102767.72
2022-08-07T02:54:42.703Z,102766.06
2022-08-07T02:57:13.537Z,102759.25
2022-08-07T02:59:45.635Z,102767.19
2022-08-07T03:02:22.590Z,102763.75
2022-08-07T03:04:51.496Z,102768.22
2022-08-07T03:07:21.531Z,102765.63
2022-08-07T03:10:06.417Z,102757.88
2022-08-07T03:12:36.562Z,102765.78
2022-08-07T03:15:07.484Z,102751.94
2022-08-07T03:17:53.283Z,102754.66
2022-08-07T03:20:22.038Z,102753.00
2022-08-07T03:22:50.581Z,102759.16
2022-08-07T03:25:21.162Z,102758.34
2022-08-07T03:28:08.961Z,102767.09
2022-08-07T03:30:36.185Z,102770.75
2022-08-07T03:33:04.810Z,102764.78
2022-08-07T03:35:43.796Z,102755.19
2022-08-07T03:38:21.438Z,102761.41
2022-08-07T03:40:57.716Z,102758.03
2022-08-07T03:43:26.612Z,102765.91
2022-08-07T03:45:53.640Z,102757.22
2022-08-07T03:48:20.487Z,102748.56
2022-08-07T03:50:55.758Z,102761.72
2022-08-07T03:54:00.644Z,102761.75
2022-08-07T03:56:11.191Z,102765.28
2022-08-07T03:59:08.102Z,102762.75
2022-08-07T04:01:28.891Z,102769.81
2022-08-07T04:03:55.702Z,102762.00
2022-08-07T04:06:37.577Z,102751.53
2022-08-07T04:09:05.897Z,102762.06
2022-08-07T04:12:23.771Z,102761.25
2022-08-07T04:14:37.061Z,102760.41
2022-08-07T04:17:19.928Z,102763.94
2022-08-07T04:19:52.254Z,102763.06
2022-08-07T04:22:23.901Z,102762.19
2022-08-07T04:24:55.886Z,102765.72
2022-08-07T04:27:25.806Z,102766.59
2022-08-07T04:30:01.588Z,102765.72
2022-08-07T04:32:34.260Z,102771.88
2022-08-07T04:35:05.609Z,102779.72
2022-08-07T04:37:52.825Z,102784.84
2022-08-07T04:40:20.480Z,102774.44
2022-08-07T04:42:47.053Z,102781.44
2022-08-07T04:45:52.147Z,102776.13
2022-08-07T04:48:12.873Z,102775.25
2022-08-07T04:51:09.118Z,102780.41
2022-08-07T04:54:05.669Z,102780.38
2022-08-07T04:58:10.247Z,102792.53
2022-08-07T05:00:09.838Z,102786.31
2022-08-07T05:03:16.830Z,102783.66
2022-08-07T05:06:20.154Z,102787.06
2022-08-07T05:09:08.120Z,102786.03
2022-08-07T05:11:57.348Z,102783.22
2022-08-07T05:14:56.533Z,102786.47
2022-08-07T05:17:52.900Z,102774.84
2022-08-07T05:20:13.735Z,102782.44
2022-08-07T05:22:42.112Z,102786.66
2022-08-07T05:25:25.901Z,102775.03
2022-08-07T05:28:02.575Z,102781.75
2022-08-07T05:30:44.575Z,102782.31
2022-08-07T05:33:15.113Z,102784.59
2022-08-07T05:35:45.535Z,102792.06
2022-08-07T05:39:01.382Z,102792.56
2022-08-07T05:41:02.538Z,102786.94
2022-08-07T05:44:01.567Z,102784.81
2022-08-07T05:46:29.502Z,102785.09
2022-08-07T05:48:59.533Z,102780.09
2022-08-07T05:51:26.392Z,102775.84
2022-08-07T05:54:12.867Z,102776.81
2022-08-07T05:56:47.849Z,102777.31
2022-08-07T05:59:19.656Z,102779.59
2022-08-07T06:01:49.496Z,102789.53
2022-08-07T06:04:19.636Z,102799.03
2022-08-07T06:06:47.611Z,102798.50
2022-08-07T06:09:23.478Z,102792.03
2022-08-07T06:12:10.347Z,102788.56
2022-08-07T06:14:39.562Z,102783.16
2022-08-07T06:17:07.214Z,102779.66
2022-08-07T06:19:52.038Z,102788.31
2022-08-07T06:22:24.162Z,102782.63
2022-08-07T06:24:58.442Z,102781.44
2022-08-07T06:27:44.093Z,102785.81
2022-08-07T06:30:24.381Z,102793.28
2022-08-07T06:33:02.325Z,102793.22
2022-08-07T06:35:38.933Z,102794.84
2022-08-07T06:38:19.979Z,102793.00
2022-08-07T06:40:50.152Z,102800.38
2022-08-07T06:43:22.154Z,102787.94
2022-08-07T06:45:49.235Z,102782.66
2022-08-07T06:48:16.118Z,102782.94
2022-08-07T06:50:52.923Z,102792.66
2022-08-07T06:54:12.161Z,102789.44
2022-08-07T06:56:15.165Z,102792.44
2022-08-07T07:00:11.568Z,102785.97
2022-08-07T07:01:43.735Z,102789.50
2022-08-07T07:04:28.178Z,102784.69
2022-08-07T07:07:02.378Z,102781.16
2022-08-07T07:09:38.198Z,102782.94
2022-08-07T07:12:15.599Z,102785.56
2022-08-07T07:15:04.789Z,102784.31
2022-08-07T07:17:54.765Z,102794.53
2022-08-07T07:20:32.029Z,102795.38
2022-08-07T07:24:08.947Z,102790.50
2022-08-07T07:26:34.728Z,102803.19
2022-08-07T07:29:38.408Z,102805.22
2022-08-07T07:31:44.502Z,102797.97
2022-08-07T07:34:19.694Z,102802.91
2022-08-07T07:36:53.839Z,102798.16
2022-08-07T07:39:22.823Z,102799.63
2022-08-07T07:42:08.930Z,102794.50
2022-08-07T07:44:43.984Z,102790.78
2022-08-07T07:47:14.335Z,102790.34
2022-08-07T07:50:33.876Z,102799.53
2022-08-07T07:52:39.935Z,102785.06
2022-08-07T07:55:09.099Z,102780.75
2022-08-07T07:57:50.464Z,102782.75
2022-08-07T08:00:29.400Z,102782.25
2022-08-07T08:03:16.645Z,102775.34
2022-08-07T08:05:58.513Z,102771.59
2022-08-07T08:08:37.011Z,102774.09
2022-08-07T08:11:13.516Z,102773.06
2022-08-07T08:13:53.281Z,102764.38
2022-08-07T08:16:29.914Z,102768.00
2022-08-07T08:18:58.243Z,102761.88
2022-08-07T08:21:56.929Z,102763.66
2022-08-07T08:25:03.242Z,102765.97
2022-08-07T08:27:43.958Z,102755.47
2022-08-07T08:30:23.377Z,102757.66
2022-08-07T08:32:59.085Z,102755.47
2022-08-07T08:35:28.700Z,102749.06
2022-08-07T08:38:04.598Z,102746.25
2022-08-07T08:40:52.265Z,102756.81
2022-08-07T08:43:42.137Z,102753.03
2022-08-07T08:46:16.928Z,102754.72
2022-08-07T08:49:07.106Z,102751.34
2022-08-07T08:52:00.939Z,102751.63
2022-08-07T08:54:46.098Z,102749.59
2022-08-07T08:57:40.113Z,102743.84
2022-08-07T09:00:09.228Z,102738.34
2022-08-07T09:02:43.744Z,102743.22
2022-08-07T09:05:37.503Z,102744.94
2022-08-07T09:08:17.875Z,102739.78
2022-08-07T09:11:24.226Z,102736.34
2022-08-07T09:14:14.768Z,102744.09
2022-08-07T09:16:47.663Z,102742.28
2022-08-07T09:19:50.712Z,102740.53
2022-08-07T09:24:31.522Z,102735.06
2022-08-07T09:25:54.280Z,102736.63
2022-08-07T09:30:03.127Z,102738.59
2022-08-07T09:31:54.834Z,102733.34
2022-08-07T09:34:27.657Z,102725.63
2022-08-07T09:37:12.352Z,102729.78
2022-08-07T09:40:05.918Z,102727.78
2022-08-07T09:42:58.641Z,102721.00
2022-08-07T09:47:49.765Z,102716.13
2022-08-07T09:50:00.801Z,102717.50
2022-08-07T09:52:33.380Z,102712.31
2022-08-07T09:55:28.943Z,102717.41
2022-08-07T09:58:32.907Z,102705.50
2022-08-07T10:01:50.559Z,102710.28
2022-08-07T10:04:47.720Z,102701.66
2022-08-07T10:07:52.626Z,102706.47
2022-08-07T10:10:28.279Z,102701.53
2022-08-07T10:13:55.623Z,102696.50
2022-08-07T10:16:16.001Z,102697.03
2022-08-07T10:19:03.629Z,102698.81
2022-08-07T10:22:16.333Z,102688.59
2022-08-07T10:24:51.021Z,102685.63
2022-08-07T10:27:47.652Z,102681.03
2022-08-07T10:30:20.065Z,102678.16
2022-08-07T10:34:06.797Z,102676.84
2022-08-07T10:36:36.350Z,102664.88
2022-08-07T10:39:41.928Z,102682.09
2022-08-07T10:42:38.667Z,102670.44
2022-08-07T10:45:44.964Z,102658.63
2022-08-07T10:48:35.443Z,102653.50
2022-08-07T10:51:39.568Z,102657.44
2022-08-07T10:54:18.443Z,102656.00
2022-08-07T10:56:54.545Z,102653.63
2022-08-07T10:59:45.386Z,102649.66
2022-08-07T11:02:34.128Z,102647.50
2022-08-07T11:05:24.129Z,102635.78
2022-08-07T11:08:02.601Z,102637.22
2022-08-07T11:10:39.513Z,102631.53
2022-08-07T11:14:42.332Z,102625.38
2022-08-07T11:16:34.045Z,102625.03
2022-08-07T11:19:21.654Z,102626.63
2022-08-07T11:22:18.819Z,102630.22
2022-08-07T11:25:07.281Z,102622.31
2022-08-07T11:28:01.472Z,102625.78
2022-08-07T11:30:57.909Z,102622.06
2022-08-07T11:33:59.112Z,102626.88
2022-08-07T11:37:11.584Z,102615.16
2022-08-07T11:40:00.261Z,102620.81
2022-08-07T11:42:59.812Z,102613.78
2022-08-07T11:45:53.553Z,102604.78
2022-08-07T11:49:50.884Z,102603.91
2022-08-07T11:52:01.814Z,102598.56
2022-08-07T11:54:38.699Z,102602.22
2022-08-07T11:57:24.990Z,102601.09
2022-08-07T12:00:30.967Z,102590.16
2022-08-07T12:03:41.538Z,102597.09
2022-08-07T12:06:39.110Z,102584.50
2022-08-07T12:09:34.081Z,102585.00
2022-08-07T12:12:18.730Z,102573.13
2022-08-07T12:15:00.466Z,102579.44
2022-08-07T12:17:37.271Z,102586.44
2022-08-07T12:20:20.935Z,102582.84
2022-08-07T12:23:16.431Z,102582.81
2022-08-07T12:26:23.113Z,102583.19
2022-08-07T12:29:11.778Z,102591.91
2022-08-07T12:32:05.114Z,102584.91
2022-08-07T12:34:36.981Z,102585.84
2022-08-07T12:37:08.257Z,102579.38
2022-08-07T12:39:50.564Z,102573.72
2022-08-07T12:42:27.251Z,102575.84
2022-08-07T12:44:58.383Z,102576.84
2022-08-07T12:47:37.514Z,102574.66
2022-08-07T12:50:34.283Z,102570.72
2022-08-07T12:53:19.018Z,102569.09
2022-08-07T12:56:12.361Z,102572.66
2022-08-07T12:58:44.233Z,102572.66
2022-08-07T13:01:19.347Z,102566.22
2022-08-07T13:04:01.925Z,102568.91
2022-08-07T13:07:00.379Z,102572.63
2022-08-07T13:10:36.717Z,102564.38
2022-08-07T13:12:58.419Z,102558.94
2022-08-07T13:15:51.146Z,102557.94
2022-08-07T13:18:28.363Z,102559.31
2022-08-07T13:21:50.371Z,102557.34
2022-08-07T13:24:29.436Z,102552.25
2022-08-07T13:27:23.232Z,102556.56
2022-08-07T13:30:19.115Z,102556.81
2022-08-07T13:34:14.903Z,102554.88
2022-08-07T13:36:17.785Z,102548.13
2022-08-07T13:38:56.225Z,102542.78
2022-08-07T13:41:42.548Z,102544.50
2022-08-07T13:44:26.098Z,102539.34
2022-08-07T13:46:57.976Z,102542.03
2022-08-07T13:50:33.870Z,102540.75
2022-08-07T13:52:33.552Z,102535.59
2022-08-07T13:55:25.802Z,102537.13
2022-08-07T13:58:28.180Z,102542.94
2022-08-07T14:01:08.944Z,102527.91
2022-08-07T14:04:05.652Z,102538.47
2022-08-07T14:06:38.517Z,102533.38
2022-08-07T14:09:07.270Z,102531.56
2022-08-07T14:11:53.164Z,102541.97
2022-08-07T14:14:31.328Z,102538.47
2022-08-07T14:17:32.123Z,102533.97
2022-08-07T14:20:39.813Z,102537.75
2022-08-07T14:22:42.579Z,102545.75
2022-08-07T14:25:15.429Z,102542.38
2022-08-07T14:28:10.965Z,102534.81
2022-08-07T14:30:40.494Z,102529.19
2022-08-07T14:33:09.261Z,102534.25
2022-08-07T14:35:44.710Z,102552.78
2022-08-07T14:38:26.721Z,102536.78
2022-08-07T14:41:04.999Z,102532.06
2022-08-07T14:46:30.499Z,102545.56
2022-08-07T14:49:00.242Z,102536.63
2022-08-07T14:52:04.947Z,102544.91
2022-08-07T14:54:42.124Z,102540.97
2022-08-07T14:57:54.857Z,102527.91
2022-08-07T15:00:06.631Z,102522.03
2022-08-07T15:02:35.107Z,102519.34
2022-08-07T15:05:19.665Z,102518.50
2022-08-07T15:07:51.290Z,102522.59
2022-08-07T15:10:26.039Z,102520.63
2022-08-07T15:12:59.692Z,102513.84
2022-08-07T15:15:38.897Z,102522.84
2022-08-07T15:18:14.095Z,102518.91
2022-08-07T15:21:08.334Z,102523.84
2022-08-07T15:25:13.284Z,102512.19
2022-08-07T15:26:35.412Z,102514.47
2022-08-07T15:34:50.680Z,102506.69
2022-08-07T15:38:04.645Z,102508.34
2022-08-07T15:40:34.332Z,102502.59
2022-08-07T15:43:53.661Z,102501.34
2022-08-07T15:46:31.105Z,102501.91
2022-08-07T15:49:12.027Z,102499.94
2022-08-07T15:54:34.175Z,102495.50
2022-08-07T15:57:02.894Z,102491.41
2022-08-07T15:59:39.790Z,102492.94
2022-08-07T16:02:22.739Z,102490.84
2022-08-07T16:04:58.216Z,102486.03
2022-08-07T16:08:33.326Z,102482.22
2022-08-07T16:10:19.307Z,102479.38
2022-08-07T16:13:17.788Z,102478.69
2022-08-07T16:16:47.883Z,102473.09
2022-08-07T16:19:21.127Z,102483.38
2022-08-07T16:22:37.739Z,102482.25
2022-08-07T16:25:54.169Z,102476.91
2022-08-07T16:30:08.332Z,102483.94
2022-08-07T16:32:05.996Z,102475.81
2022-08-07T16:34:38.925Z,102478.78
2022-08-07T16:38:05.922Z,102484.78
2022-08-07T16:40:56.980Z,102475.50
2022-08-07T16:44:02.296Z,102481.97
2022-08-07T16:47:08.999Z,102474.78
2022-08-07T16:50:28.842Z,102485.31
2022-08-07T16:54:01.357Z,102479.50
2022-08-07T16:56:29.401Z,102483.94
2022-08-07T16:59:10.785Z,102487.81
2022-08-07T17:02:02.849Z,102476.84
2022-08-07T17:06:02.384Z,102481.78
2022-08-07T17:07:58.152Z,102475.16
2022-08-07T17:10:56.611Z,102479.13
2022-08-07T17:14:18.607Z,102489.28
2022-08-07T17:16:56.200Z,102479.81
2022-08-07T17:20:02.252Z,102476.00
2022-08-07T17:22:42.628Z,102471.00
2022-08-07T17:25:48.004Z,102472.97
2022-08-07T17:28:19.337Z,102473.69
2022-08-07T17:31:16.604Z,102476.13
2022-08-07T17:34:32.553Z,102472.16
2022-08-07T17:36:57.737Z,102476.53
2022-08-07T17:40:03.466Z,102475.78
2022-08-07T17:42:59.194Z,102477.81
2022-08-07T17:45:35.270Z,102475.34
2022-08-07T17:48:31.078Z,102473.97
2022-08-07T17:51:24.459Z,102474.59
2022-08-07T17:54:29.600Z,102475.13
2022-08-07T17:57:21.814Z,102483.66
2022-08-07T17:59:56.097Z,102483.84
2022-08-07T18:02:56.355Z,102479.97
2022-08-07T18:06:02.818Z,102479.63
2022-08-07T18:08:31.645Z,102480.06
2022-08-07T18:12:06.915Z,102484.94
2022-08-07T18:14:46.029Z,102483.53
2022-08-07T18:18:39.936Z,102487.88
2022-08-07T18:21:06.352Z,102492.41
2022-08-07T18:23:43.498Z,102497.22
2022-08-07T18:26:18.449Z,102489.81
2022-08-07T18:29:02.426Z,102496.72
2022-08-07T18:32:08.781Z,102498.44
2022-08-07T18:35:01.655Z,102501.59
2022-08-07T18:38:57.300Z,102509.06
2022-08-07T18:40:56.376Z,102507.53
2022-08-07T18:43:57.537Z,102517.91
2022-08-07T18:46:51.154Z,102511.88
2022-08-07T18:50:32.613Z,102514.19
2022-08-07T18:52:56.758Z,102514.66
2022-08-07T18:55:43.305Z,102514.66
2022-08-07T18:58:37.311Z,102515.03
2022-08-07T19:02:18.865Z,102516.34
2022-08-07T19:04:28.184Z,102518.84
2022-08-07T19:07:51.929Z,102523.66
2022-08-07T19:10:31.442Z,102524.88
2022-08-07T19:13:10.249Z,102522.69
2022-08-07T19:16:43.206Z,102524.44
2022-08-07T19:19:08.282Z,102531.78
2022-08-07T19:22:04.622Z,102520.72
2022-08-07T19:24:43.136Z,102527.66
2022-08-07T19:28:30.584Z,102534.19
2022-08-07T19:30:56.463Z,102531.84
2022-08-07T19:33:01.647Z,102533.41
2022-08-07T19:35:38.667Z,102541.06
2022-08-07T19:38:15.898Z,102544.69
2022-08-07T19:40:50.199Z,102547.56
2022-08-07T19:43:43.943Z,102556.81
2022-08-07T19:46:10.711Z,102553.09
2022-08-07T19:48:42.878Z,102560.66
2022-08-07T19:51:19.245Z,102558.44
2022-08-07T19:54:33.747Z,102567.59
2022-08-07T19:58:02.405Z,102571.75
2022-08-07T19:59:41.214Z,102564.47
2022-08-07T20:02:19.666Z,102570.31
2022-08-07T20:04:50.145Z,102568.81
2022-08-07T20:07:23.768Z,102565.53
2022-08-07T20:10:35.062Z,102576.25
2022-08-07T20:12:54.364Z,102567.03
2022-08-07T20:15:32.973Z,102571.72
2022-08-07T20:18:06.245Z,102572.00
2022-08-07T20:20:41.756Z,102571.38
2022-08-07T20:23:23.114Z,102575.28
2022-08-07T20:26:04.415Z,102582.78
2022-08-07T20:28:39.859Z,102585.03
2022-08-07T20:31:21.037Z,102575.06
2022-08-07T20:33:56.499Z,102583.41
2022-08-07T20:36:27.201Z,102583.00
2022-08-07T20:39:00.403Z,102585.72
2022-08-07T20:41:37.962Z,102582.00
2022-08-07T20:44:10.517Z,102590.25
2022-08-07T20:46:44.662Z,102592.38
2022-08-07T20:50:00.115Z,102583.88
2022-08-07T20:52:00.016Z,102585.88
2022-08-07T20:54:29.754Z,102584.59
2022-08-07T20:57:03.696Z,102576.22
2022-08-07T21:00:06.702Z,102582.88
2022-08-07T21:02:41.778Z,102584.94
2022-08-07T21:05:25.714Z,102584.28
2022-08-07T21:08:35.061Z,102592.22
2022-08-07T21:11:10.474Z,102595.81
2022-08-07T21:13:57.410Z,102600.34
2022-08-07T21:16:30.181Z,102606.13
2022-08-07T21:18:57.750Z,102603.09
2022-08-07T21:21:28.968Z,102591.16
2022-08-07T21:24:16.714Z,102594.06
2022-08-07T21:27:01.016Z,102593.53
2022-08-07T21:29:33.816Z,102589.28
2022-08-07T21:32:50.913Z,102591.56
2022-08-07T21:35:34.572Z,102590.47
2022-08-07T21:38:18.014Z,102591.78
2022-08-07T21:41:00.312Z,102594.63
2022-08-07T21:43:55.665Z,102587.91
2022-08-07T21:46:37.858Z,102588.94
2022-08-07T21:50:02.261Z,102587.44
2022-08-07T21:52:37.194Z,102585.84
2022-08-07T21:55:10.983Z,102591.31
2022-08-07T21:58:09.215Z,102592.53
2022-08-07T22:00:42.553Z,102596.06
2022-08-07T22:03:31.252Z,102589.22
2022-08-07T22:06:06.490Z,102592.22
2022-08-07T22:08:50.040Z,102594.28
2022-08-07T22:11:18.291Z,102597.22
2022-08-07T22:13:54.883Z,102593.06
2022-08-07T22:16:38.482Z,102598.53
2022-08-07T22:19:27.068Z,102595.41
2022-08-07T22:22:21.484Z,102603.56
2022-08-07T22:25:18.431Z,102607.34
2022-08-07T22:28:07.735Z,102604.97
2022-08-07T22:31:09.933Z,102607.03
2022-08-07T22:33:57.055Z,102607.97
2022-08-07T22:36:53.164Z,102611.63
2022-08-07T22:39:28.512Z,102610.13
2022-08-07T22:42:18.838Z,102603.34
2022-08-07T22:44:58.717Z,102610.56
2022-08-07T22:47:49.439Z,102616.88
2022-08-07T22:50:53.529Z,102619.00
2022-08-07T22:54:06.685Z,102626.25
2022-08-07T22:57:03.078Z,102629.13
2022-08-07T22:59:46.966Z,102626.75
2022-08-07T23:02:34.942Z,102633.19
2022-08-07T23:06:08.220Z,102623.88
2022-08-07T23:08:30.198Z,102634.66
2022-08-07T23:11:22.872Z,102630.50
2022-08-07T23:14:10.893Z,102636.03
2022-08-07T23:17:00.453Z,102627.63
2022-08-07T23:19:51.925Z,102633.13
2022-08-07T23:22:55.446Z,102630.75
2022-08-07T23:25:56.602Z,102637.81
2022-08-07T23:28:54.689Z,102632.69
2022-08-07T23:32:48.672Z,102627.69
2022-08-07T23:34:23.629Z,102630.66
2022-08-07T23:37:36.013Z,102625.56
2022-08-07T23:40:26.381Z,102627.50
2022-08-07T23:43:24.162Z,102630.38
2022-08-07T23:46:10.544Z,102633.41
2022-08-07T23:48:59.276Z,102638.84
2022-08-07T23:52:59.895Z,102634.69
2022-08-07T23:54:46.484Z,102645.47
2022-08-07T23:57:34.954Z,102634.31
